• Join FlightAware (Why Join?)
  • Login
  • US Flag 
07:01AM EST


 

Airport Tracker/Info


-or-


 

Live Flight TrackerFlight Track Log ✈ EJA941 ✈ 08-May-2013 ✈ KCOU - KAPA

Flight Track Log - Related Links

Times and Time Zones

All times are in EDT time to prevent confusion due to time zone crossing. See the EJA941 flight status page for this flight to view local times or setup timezone preferences in your user account.

Time Position Orientation Groundspeed Altitude Reporting Facility
EDT Latitude Longitude Course Direction KTS MPH feet Rate Location/Type
04:50PM 38.7956 -92.2833 301° West 231 266 5,000  Level Kansas City Center
04:51PM 38.8431 -92.3858 301° West 277 319 7,000 2,516 Climbing Kansas City Center
04:52PM 38.8831 -92.4719 301° West 279 321 10,200 2,323 Climbing Kansas City Center
04:53PM 38.9256 -92.5631 301° West 285 328 11,800 1,742 Climbing Kansas City Center
04:54PM 38.9719 -92.6725 299° West 317 365 13,800 1,935 Climbing Kansas City Center
04:55PM 38.9972 -92.7931 285° West 350 403 15,800 1,790 Climbing Kansas City Center
04:56PM 39.0228 -92.9164 285° West 355 409 17,500 1,839 Climbing Kansas City Center
04:57PM 39.0569 -93.0719 286° West 372 428 19,600 1,935 Climbing Kansas City Center
04:58PM 39.1022 -93.1978 295° West 386 444 21,500 1,645 Climbing Kansas City Center
04:59PM 39.1497 -93.3222 296° West 390 449 23,000 968 Climbing Kansas City Center
05:00PM 39.2022 -93.4633 296° West 427 491 23,500 1,016 Climbing Kansas City Center
05:01PM 39.2631 -93.6222 296° West 443 510 25,100 1,403 Climbing Kansas City Center
05:02PM 39.3169 -93.7631 296° West 454 522 26,400 1,403 Climbing Kansas City Center
05:03PM 39.3781 -93.9278 296° West 457 526 28,000 1,597 Climbing Kansas City Center
05:04PM 39.4328 -94.0725 296° West 466 536 29,700 1,113 Climbing Kansas City Center
05:05PM 39.4958 -94.2453 295° West 477 549 30,300 968 Climbing Kansas City Center
05:06PM 39.5536 -94.3983 296° West 491 565 31,700 1,548 Climbing Kansas City Center
05:07PM 39.6183 -94.5731 296° West 484 557 33,500 1,113 Climbing Kansas City Center
05:08PM 39.6722 -94.7217 295° West 479 551 34,000 581 Climbing Kansas City Center
05:09PM 39.7358 -94.8983 295° West 485 558 34,700 960 Climbing Kansas City Center
05:10PM 39.7897 -95.0467 295° West 478 550 36,000 960 Climbing Kansas City Center
05:11PM 39.8531 -95.2203 295° West 479 551 36,700 1,029 Climbing Kansas City Center
05:12PM 39.8889 -95.3250 294° West 477 549 37,800 1,548 Climbing Minneapolis Center
05:12PM 39.9050 -95.3681 296° West 471 542 38,300 1,452 Climbing Kansas City Center
05:13PM 39.9422 -95.4769 294° West 472 543 39,300 971 Climbing Minneapolis Center
05:14PM 39.9956 -95.6269 295° West 462 532 40,000 339 Climbing Minneapolis Center
05:15PM 40.0503 -95.7842 294° West 469 540 40,000  Level Minneapolis Center
05:16PM 40.1200 -95.9764 295° West 483 556 40,000  Level Minneapolis Center
05:17PM 40.1767 -96.1378 295° West 485 558 40,000  Level Minneapolis Center
05:18PM 40.2092 -96.3106 284° West 489 563 40,000  Level Minneapolis Center
05:19PM 40.2206 -96.4867 275° West 488 562 40,000  Level Minneapolis Center
05:20PM 40.2333 -96.6619 276° West 484 557 40,000  Level Minneapolis Center
05:21PM 40.2458 -96.8386 275° West 485 558 40,000  Level Minneapolis Center
05:22PM 40.2567 -97.0139 275° West 484 557 40,000  Level Minneapolis Center
05:23PM 40.2708 -97.2233 275° West 481 554 40,000  Level Minneapolis Center
05:24PM 40.2822 -97.3861 275° West 483 556 40,000  Level Minneapolis Center
05:25PM 40.2925 -97.5628 274° West 485 558 40,000  Level Minneapolis Center
05:26PM 40.3042 -97.7414 275° West 489 563 40,000  Level Minneapolis Center
05:28PM 40.3161 -97.9525 274° West 485 558 40,000  Level Minneapolis Center
05:29PM 40.3261 -98.1297 274° West 485 558 40,000  Level Minneapolis Center
05:30PM 40.3344 -98.2725 274° West 488 562 40,000  Level Minneapolis Center
05:31PM 40.3458 -98.4875 274° West 490 564 40,000  Level Minneapolis Center
05:32PM 40.3567 -98.6675 275° West 492 566 40,000  Level Minneapolis Center
05:33PM 40.3656 -98.8467 274° West 492 566 40,000  Level Minneapolis Center
05:33PM 40.3694 -98.9200 274° West 493 567 40,000  Level Denver Center
05:34PM 40.3783 -99.1006 274° West 493 567 40,000  Level Denver Center
05:35PM 40.3856 -99.2444 274° West 495 570 40,000  Level Minneapolis Center
05:35PM 40.3900 -99.3175 275° West 494 568 40,000  Level Denver Center
05:36PM 40.3986 -99.4986 274° West 495 570 40,000  Level Denver Center
05:37PM 40.4081 -99.6800 274° West 496 571 40,000  Level Denver Center
05:38PM 40.4169 -99.8603 274° West 495 570 40,000  Level Denver Center
05:39PM 40.4256 -100.0456 274° West 502 578 40,000  Level Denver Center
05:40PM 40.4344 -100.2494 273° West 500 575 40,000  Level Denver Center
05:41PM 40.4425 -100.4233 274° West 498 573 40,000  Level Denver Center
05:42PM 40.4494 -100.5969 273° West 496 571 40,000  Level Denver Center
05:44PM 40.4583 -100.7997 273° West 495 570 40,000  Level Denver Center
05:45PM 40.4658 -101.0031 273° West 495 570 40,000  Level Denver Center
05:46PM 40.4736 -101.2050 273° West 493 567 40,000  Level Denver Center
05:47PM 40.4797 -101.3783 273° West 495 570 40,000  Level Denver Center
05:48PM 40.4858 -101.5789 272° West 492 566 40,000  Level Denver Center
05:49PM 40.4919 -101.7503 273° West 491 565 40,000  Level Denver Center
05:50PM 40.4978 -101.9228 273° West 493 567 40,000  Level Denver Center
05:51PM 40.5031 -102.1247 272° West 495 570 40,000 -677 Level Denver Center
05:52PM 40.4939 -102.2983 266° West 496 571 38,600 -1,659 Descending Denver Center
05:53PM 40.4786 -102.4986 264° West 494 568 36,600 -2,000 Descending Denver Center
05:54PM 40.4647 -102.6706 264° West 496 571 34,500 -2,226 Descending Denver Center
05:55PM 40.4503 -102.8642 264° West 480 552 32,000 -2,274 Descending Denver Center
05:56PM 40.4294 -103.0217 260° West 462 532 29,800 -2,371 Descending Denver Center
05:57PM 40.3939 -103.2031 256° West 458 527 27,100 -2,226 Descending Denver Center
05:58PM 40.3856 -103.3756 266° West 456 525 25,200 -1,984 Descending Denver Center
05:59PM 40.3808 -103.5089 267° West 385 443 23,000 -2,032 Descending Denver Center
06:00PM 40.3742 -103.6414 266° West 381 438 21,000 -2,244 Descending Denver Center
06:01PM 40.3681 -103.7964 267° West 372 428 18,400 -1,951 Descending Denver Center
06:02PM 40.3628 -103.9239 267° West 353 406 17,000 -677 Descending Denver Center
06:03PM 40.3403 -104.0375 255° West 324 373 17,000 48 Level Denver Center
06:04PM 40.3069 -104.1564 250° West 322 371 17,100 -145 Climbing Denver Center
06:05PM 40.2744 -104.2719 250° West 340 391 16,700 -726 Descending Denver Center
06:06PM 40.2278 -104.3725 239° Southwest 326 375 15,600 -1,258 Descending Denver Center
06:07PM 40.1672 -104.4697 231° Southwest 319 367 14,100 -1,258 Descending Denver Center
06:08PM 40.1136 -104.5586 232° Southwest 313 360 13,000 -1,403 Descending Denver Center
06:09PM 40.0581 -104.6558 233° Southwest 311 358 11,200 -1,258 Descending Denver Center
06:10PM 40.0111 -104.7461 236° Southwest 304 350 10,400 -1,024 Descending Denver Center
06:11PM 39.9672 -104.8447 240° Southwest 294 338 9,100 -1,122 Descending Denver Center
06:12PM 39.9111 -104.9111 222° Southwest 276 318 8,100 -532 Descending Denver Center
06:14PM 39.8464 -104.9400 199° South 257 296 8,000 -48 Descending Denver Center
06:15PM 39.7719 -104.9194 168° South 256 295 8,000 -97 Level Denver Center
06:16PM 39.7133 -104.8769 151° Southeast 242 278 7,800 -435 Descending Denver Center
06:17PM 39.6525 -104.8547 164° South 216 249 7,100 -677 Descending Denver Center
06:18PM 39.6092 -104.8528 178° South 160 184 6,400 -574 Descending Denver Center
06:19PM 39.5692 -104.8511 178° South 139 160 5,800 -486 Descending Denver Center